createdAt,value
2018-06-14T00:01:41.068Z,2.83
2018-06-14T00:04:09.096Z,2.60
2018-06-14T00:06:37.091Z,2.87
2018-06-14T00:09:07.468Z,3.43
2018-06-14T00:11:35.457Z,2.63
2018-06-14T00:14:04.396Z,3.10
2018-06-14T00:16:32.407Z,2.33
2018-06-14T00:19:00.474Z,3.30
2018-06-14T00:21:28.466Z,3.10
2018-06-14T00:23:56.472Z,3.00
2018-06-14T00:26:24.433Z,2.63
2018-06-14T00:28:52.449Z,2.80
2018-06-14T00:31:21.096Z,3.20
2018-06-14T00:33:49.266Z,2.80
2018-06-14T00:36:17.276Z,3.03
2018-06-14T00:38:45.323Z,2.80
2018-06-14T00:41:13.318Z,3.30
2018-06-14T00:43:41.300Z,3.03
2018-06-14T00:46:09.329Z,3.00
2018-06-14T00:48:37.353Z,3.10
2018-06-14T00:51:05.358Z,3.30
2018-06-14T00:53:33.369Z,3.70
2018-06-14T00:56:01.364Z,4.27
2018-06-14T00:58:29.400Z,3.63
2018-06-14T01:00:57.392Z,3.70
2018-06-14T01:03:25.428Z,4.30
2018-06-14T01:05:53.445Z,4.03
2018-06-14T01:08:21.559Z,3.77
2018-06-14T01:10:49.569Z,4.30
2018-06-14T01:13:17.586Z,3.37
2018-06-14T01:15:45.723Z,2.90
2018-06-14T01:18:13.713Z,3.60
2018-06-14T01:20:41.724Z,3.40
2018-06-14T01:23:09.739Z,3.47
2018-06-14T01:25:37.732Z,2.97
2018-06-14T01:28:05.700Z,3.37
2018-06-14T01:30:33.776Z,3.33
2018-06-14T01:33:01.830Z,4.33
2018-06-14T01:35:30.217Z,4.13
2018-06-14T01:38:09.678Z,3.77
2018-06-14T01:40:37.708Z,3.80
2018-06-14T01:43:05.827Z,4.30
2018-06-14T01:45:34.328Z,3.87
2018-06-14T01:48:02.332Z,4.03
2018-06-14T01:50:30.341Z,4.50
2018-06-14T01:52:58.339Z,3.23
2018-06-14T01:55:29.672Z,3.70
2018-06-14T01:57:57.673Z,3.37
2018-06-14T02:00:25.660Z,3.73
2018-06-14T02:02:53.710Z,3.73
2018-06-14T02:05:21.716Z,3.73
2018-06-14T02:07:49.746Z,4.07
2018-06-14T02:10:17.775Z,3.50
2018-06-14T02:12:45.816Z,3.40
2018-06-14T02:15:13.837Z,4.13
2018-06-14T02:17:41.801Z,4.00
2018-06-14T02:20:09.813Z,3.80
2018-06-14T02:22:37.801Z,3.80
2018-06-14T02:25:05.921Z,4.43
2018-06-14T02:27:33.988Z,4.03
2018-06-14T02:30:02.004Z,4.00
2018-06-14T02:32:30.225Z,4.10
2018-06-14T02:34:58.274Z,3.23
2018-06-14T02:37:26.880Z,3.90
2018-06-14T02:39:54.898Z,3.63
2018-06-14T02:42:22.876Z,4.23
2018-06-14T02:44:50.903Z,4.07
2018-06-14T02:47:18.953Z,4.03
2018-06-14T02:49:46.907Z,3.57
2018-06-14T02:52:14.896Z,4.23
2018-06-14T02:54:42.897Z,4.27
2018-06-14T02:57:10.901Z,4.13
2018-06-14T02:59:38.937Z,3.27
2018-06-14T03:02:07.012Z,3.40
2018-06-14T03:04:35.036Z,3.60
2018-06-14T03:07:03.073Z,3.70
2018-06-14T03:09:31.072Z,3.77
2018-06-14T03:11:59.095Z,4.13
2018-06-14T03:14:27.124Z,3.90
2018-06-14T03:16:55.136Z,3.83
2018-06-14T03:19:23.125Z,3.47
2018-06-14T03:21:51.161Z,3.70
2018-06-14T03:24:19.160Z,4.00
2018-06-14T03:26:47.165Z,3.67
2018-06-14T03:29:15.329Z,4.40
2018-06-14T03:34:19.884Z,4.03
2018-06-14T03:36:47.889Z,4.20
2018-06-14T03:39:15.856Z,3.73
2018-06-14T03:41:43.840Z,3.80
2018-06-14T03:44:11.810Z,3.93
2018-06-14T03:46:39.798Z,4.70
2018-06-14T03:49:07.801Z,5.00
2018-06-14T03:51:35.842Z,4.30
2018-06-14T03:54:03.853Z,4.20
2018-06-14T03:56:31.856Z,4.50
2018-06-14T03:58:59.868Z,4.80
2018-06-14T04:01:27.852Z,5.20
2018-06-14T04:03:55.913Z,5.00
2018-06-14T04:06:23.919Z,4.37
2018-06-14T04:08:51.949Z,4.70
2018-06-14T04:11:20.061Z,4.40
2018-06-14T04:13:48.068Z,4.50
2018-06-14T04:16:16.097Z,4.97
2018-06-14T04:18:44.115Z,4.40
2018-06-14T04:21:12.141Z,4.90
2018-06-14T04:23:40.137Z,4.80
2018-06-14T04:26:08.204Z,4.60
2018-06-14T04:28:36.341Z,4.50
2018-06-14T04:31:04.436Z,4.87
2018-06-14T04:33:32.416Z,4.43
2018-06-14T04:36:00.441Z,4.67
2018-06-14T04:38:28.580Z,4.23
2018-06-14T04:40:56.806Z,4.23
2018-06-14T04:43:24.924Z,3.93
2018-06-14T04:45:52.976Z,5.30
2018-06-14T04:48:20.997Z,4.43
2018-06-14T04:50:48.993Z,5.57
2018-06-14T04:53:16.977Z,4.80
2018-06-14T04:55:44.987Z,5.20
2018-06-14T04:58:12.992Z,4.67
2018-06-14T05:00:41.020Z,4.00
2018-06-14T05:03:09.068Z,4.93
2018-06-14T05:05:37.123Z,4.50
2018-06-14T05:08:05.274Z,4.40
2018-06-14T05:10:33.275Z,3.70
2018-06-14T05:13:01.320Z,4.57
2018-06-14T05:15:29.326Z,5.20
2018-06-14T05:17:57.358Z,4.73
2018-06-14T05:20:25.345Z,5.17
2018-06-14T05:22:53.417Z,5.63
2018-06-14T05:25:21.465Z,5.43
2018-06-14T05:27:49.447Z,4.43
2018-06-14T05:30:17.424Z,3.60
2018-06-14T05:32:45.436Z,4.63
2018-06-14T05:35:13.480Z,3.90
2018-06-14T05:37:41.504Z,3.60
2018-06-14T05:40:09.498Z,4.00
2018-06-14T05:42:37.520Z,3.93
2018-06-14T05:45:05.492Z,3.40
2018-06-14T05:47:33.485Z,3.90
2018-06-14T05:50:01.468Z,3.73
2018-06-14T05:52:29.453Z,4.20
2018-06-14T05:54:57.539Z,3.03
2018-06-14T05:57:25.536Z,3.90
2018-06-14T05:59:53.517Z,4.10
2018-06-14T06:02:21.518Z,3.97
2018-06-14T06:04:49.509Z,4.00
2018-06-14T06:07:17.500Z,3.80
2018-06-14T06:09:45.512Z,3.23
2018-06-14T06:12:13.523Z,4.40
2018-06-14T06:14:41.546Z,3.50
2018-06-14T06:17:09.784Z,3.90
2018-06-14T06:19:37.828Z,3.50
2018-06-14T06:22:05.860Z,3.60
2018-06-14T06:24:33.944Z,3.87
2018-06-14T06:27:02.168Z,4.10
2018-06-14T06:29:30.353Z,3.70
2018-06-14T06:31:58.437Z,3.80
2018-06-14T06:34:26.432Z,3.90
2018-06-14T06:36:54.421Z,2.63
2018-06-14T06:39:22.414Z,3.50
2018-06-14T06:41:50.406Z,3.93
2018-06-14T06:44:18.441Z,3.90
2018-06-14T06:46:46.469Z,3.20
2018-06-14T06:49:14.576Z,3.70
2018-06-14T06:51:42.595Z,4.37
2018-06-14T06:54:11.289Z,3.77
2018-06-14T06:56:39.347Z,4.17
2018-06-14T06:59:07.357Z,4.47
2018-06-14T07:01:35.365Z,3.93
2018-06-14T07:04:03.391Z,4.53
2018-06-14T07:06:31.435Z,4.17
2018-06-14T07:08:59.458Z,4.20
2018-06-14T07:11:27.616Z,3.90
2018-06-14T07:13:55.641Z,4.20
2018-06-14T07:16:23.689Z,4.00
2018-06-14T07:18:51.765Z,4.20
2018-06-14T07:21:19.856Z,4.00
2018-06-14T07:23:47.868Z,4.10
2018-06-14T07:26:15.910Z,4.07
2018-06-14T07:28:43.932Z,4.70
2018-06-14T07:31:11.908Z,4.30
2018-06-14T07:33:39.933Z,4.50
2018-06-14T07:36:07.948Z,4.23
2018-06-14T07:38:35.971Z,3.93
2018-06-14T07:41:04.020Z,4.30
2018-06-14T07:43:32.042Z,4.30
2018-06-14T07:46:00.036Z,4.43
2018-06-14T07:48:28.057Z,4.40
2018-06-14T07:50:56.092Z,4.40
2018-06-14T07:53:24.092Z,6.03
2018-06-14T07:55:52.109Z,4.73
2018-06-14T07:58:20.143Z,5.20
2018-06-14T08:00:48.167Z,4.80
2018-06-14T08:03:16.169Z,4.73
2018-06-14T08:05:44.180Z,4.93
2018-06-14T08:08:12.183Z,4.30
2018-06-14T08:10:40.227Z,4.60
2018-06-14T08:13:08.585Z,4.40
2018-06-14T08:15:36.650Z,4.70
2018-06-14T08:18:04.643Z,4.00
2018-06-14T08:20:32.725Z,4.30
2018-06-14T08:23:00.717Z,4.17
2018-06-14T08:25:28.733Z,3.13
2018-06-14T08:27:56.722Z,3.90
2018-06-14T08:30:24.714Z,3.67
2018-06-14T08:32:52.910Z,4.43
2018-06-14T08:35:21.920Z,4.47
2018-06-14T08:37:49.944Z,3.90
2018-06-14T08:40:17.961Z,4.00
2018-06-14T08:42:45.979Z,4.13
2018-06-14T08:45:14.043Z,3.93
2018-06-14T08:47:42.080Z,4.50
2018-06-14T08:50:10.116Z,4.50
2018-06-14T08:52:38.295Z,4.60
2018-06-14T08:55:06.345Z,4.80
2018-06-14T08:57:35.360Z,4.60
2018-06-14T09:00:03.610Z,4.50
2018-06-14T09:02:32.444Z,4.00
2018-06-14T09:05:00.536Z,4.37
2018-06-14T09:07:28.790Z,4.10
2018-06-14T09:09:56.792Z,3.77
2018-06-14T09:12:24.894Z,4.10
2018-06-14T09:14:53.153Z,4.47
2018-06-14T09:17:21.176Z,4.87
2018-06-14T09:19:49.266Z,4.00
2018-06-14T09:22:17.528Z,4.60
2018-06-14T09:24:45.573Z,5.27
2018-06-14T09:27:13.596Z,4.60
2018-06-14T09:29:41.666Z,4.50
2018-06-14T09:32:09.764Z,4.07
2018-06-14T09:34:37.790Z,4.27
2018-06-14T09:37:05.965Z,4.53
2018-06-14T09:39:34.293Z,4.53
2018-06-14T09:42:02.294Z,4.57
2018-06-14T09:44:30.304Z,3.63
2018-06-14T09:46:58.337Z,4.70
2018-06-14T09:49:26.377Z,4.17
2018-06-14T09:51:54.389Z,4.10
2018-06-14T09:54:22.796Z,5.30
2018-06-14T09:56:51.097Z,4.97
2018-06-14T09:59:19.132Z,5.03
2018-06-14T10:01:47.137Z,4.93
2018-06-14T10:04:15.296Z,4.90
2018-06-14T10:06:43.453Z,5.27
2018-06-14T10:09:12.820Z,5.30
2018-06-14T10:11:40.927Z,5.80
2018-06-14T10:14:09.356Z,4.97
2018-06-14T10:16:37.408Z,4.97
2018-06-14T10:19:05.741Z,4.97
2018-06-14T10:21:33.879Z,4.93
2018-06-14T10:24:01.922Z,4.97
2018-06-14T10:26:29.965Z,4.00
2018-06-14T10:28:58.076Z,4.50
2018-06-14T10:31:26.089Z,4.90
2018-06-14T10:33:54.148Z,4.23
2018-06-14T10:36:22.168Z,4.30
2018-06-14T10:38:50.240Z,6.00
2018-06-14T10:41:18.319Z,5.57
2018-06-14T10:43:46.381Z,5.70
2018-06-14T10:46:14.412Z,5.30
2018-06-14T10:48:42.428Z,6.00
2018-06-14T10:51:10.511Z,5.20
2018-06-14T10:53:38.526Z,5.73
2018-06-14T10:56:06.560Z,5.30
2018-06-14T10:58:34.600Z,5.60
2018-06-14T11:01:02.589Z,5.67
2018-06-14T11:03:30.603Z,6.07
2018-06-14T11:05:58.739Z,6.20
2018-06-14T11:08:26.812Z,5.93
2018-06-14T11:10:54.824Z,5.27
2018-06-14T11:13:22.879Z,4.80
2018-06-14T11:15:50.902Z,5.20
2018-06-14T11:18:18.913Z,5.90
2018-06-14T11:20:46.942Z,5.53
2018-06-14T11:23:14.991Z,5.73
2018-06-14T11:25:43.091Z,5.80
2018-06-14T11:28:11.172Z,5.30
2018-06-14T11:30:39.172Z,4.70
2018-06-14T11:33:07.215Z,4.87
2018-06-14T11:35:35.209Z,5.30
2018-06-14T11:38:03.234Z,5.60
2018-06-14T11:40:31.258Z,5.47
2018-06-14T11:42:59.283Z,4.50
2018-06-14T11:45:27.308Z,4.67
2018-06-14T11:47:55.358Z,3.30
2018-06-14T11:50:23.400Z,4.17
2018-06-14T11:52:51.375Z,4.47
2018-06-14T11:55:19.490Z,4.80
2018-06-14T11:57:47.514Z,4.30
2018-06-14T12:00:15.597Z,4.60
2018-06-14T12:02:43.603Z,4.60
2018-06-14T12:05:11.628Z,4.10
2018-06-14T12:07:39.645Z,4.37
2018-06-14T12:10:07.673Z,4.37
2018-06-14T12:12:35.690Z,4.20
2018-06-14T12:15:03.803Z,4.20
2018-06-14T12:17:31.800Z,4.53
2018-06-14T12:19:59.837Z,4.33
2018-06-14T12:22:27.876Z,4.43
2018-06-14T12:24:55.957Z,3.37
2018-06-14T12:27:23.996Z,3.83
2018-06-14T12:29:52.099Z,4.07
2018-06-14T12:32:20.111Z,3.90
2018-06-14T12:34:48.180Z,4.10
2018-06-14T12:37:16.176Z,3.33
2018-06-14T12:39:44.185Z,4.30
2018-06-14T12:42:12.188Z,3.00
2018-06-14T12:44:40.204Z,3.47
2018-06-14T12:47:08.216Z,3.93
2018-06-14T12:49:36.220Z,3.23
2018-06-14T12:52:04.248Z,3.67
2018-06-14T12:54:32.260Z,3.23
2018-06-14T12:57:00.292Z,3.20
2018-06-14T12:59:28.297Z,3.17
2018-06-14T13:01:56.340Z,4.10
2018-06-14T13:04:24.358Z,3.37
2018-06-14T13:06:52.498Z,3.53
2018-06-14T13:09:20.520Z,3.43
2018-06-14T13:11:48.613Z,3.17
2018-06-14T13:14:16.600Z,3.20
2018-06-14T13:16:44.657Z,3.50
2018-06-14T13:19:12.694Z,2.93
2018-06-14T13:21:40.709Z,3.13
2018-06-14T13:24:08.749Z,3.10
2018-06-14T13:26:36.784Z,3.40
2018-06-14T13:29:04.805Z,2.83
2018-06-14T13:31:32.801Z,2.87
2018-06-14T13:34:00.848Z,3.30
2018-06-14T13:36:29.112Z,3.30
2018-06-14T13:38:57.173Z,3.20
2018-06-14T13:41:25.237Z,2.83
2018-06-14T13:43:53.252Z,2.93
2018-06-14T13:46:21.282Z,3.50
2018-06-14T13:48:49.403Z,2.93
2018-06-14T13:51:17.349Z,2.97
2018-06-14T13:53:45.460Z,2.93
2018-06-14T13:56:13.468Z,3.83
2018-06-14T13:58:41.476Z,3.50
2018-06-14T14:01:09.638Z,3.10
2018-06-14T14:03:37.505Z,3.60
2018-06-14T14:06:05.531Z,3.40
2018-06-14T14:08:33.549Z,4.70
2018-06-14T14:11:01.548Z,3.70
2018-06-14T14:13:29.562Z,3.30
2018-06-14T14:15:57.591Z,3.10
2018-06-14T14:18:25.625Z,4.20
2018-06-14T14:20:53.700Z,4.00
2018-06-14T14:23:21.756Z,3.53
2018-06-14T14:25:49.766Z,3.83
2018-06-14T14:28:17.749Z,3.90
2018-06-14T14:30:45.771Z,4.10
2018-06-14T14:33:13.809Z,4.13
2018-06-14T14:35:41.936Z,4.23
2018-06-14T14:38:09.943Z,4.20
2018-06-14T14:40:37.954Z,3.87
2018-06-14T14:43:05.942Z,4.20
2018-06-14T14:45:33.988Z,4.40
2018-06-14T14:48:02.027Z,3.07
2018-06-14T14:50:30.141Z,3.47
2018-06-14T14:52:58.153Z,3.30
2018-06-14T14:55:26.189Z,3.77
2018-06-14T14:57:54.186Z,3.30
2018-06-14T15:00:22.217Z,3.87
2018-06-14T15:02:50.225Z,4.07
2018-06-14T15:05:18.316Z,3.60
2018-06-14T15:07:46.348Z,2.80
2018-06-14T15:10:14.375Z,3.77
2018-06-14T15:12:42.424Z,3.30
2018-06-14T15:15:10.448Z,3.40
2018-06-14T15:17:38.473Z,3.50
2018-06-14T15:20:06.537Z,3.50
2018-06-14T15:22:34.599Z,4.27
2018-06-14T15:25:02.669Z,3.67
2018-06-14T15:27:30.764Z,3.87
2018-06-14T15:29:58.792Z,4.57
2018-06-14T15:32:26.899Z,4.20
2018-06-14T15:34:54.930Z,5.73
2018-06-14T15:37:23.000Z,4.40
2018-06-14T15:39:51.272Z,4.60
2018-06-14T15:42:19.371Z,5.93
2018-06-14T15:44:47.422Z,4.30
2018-06-14T15:47:15.485Z,5.37
2018-06-14T15:49:43.484Z,4.33
2018-06-14T15:52:11.501Z,4.37
2018-06-14T15:54:39.520Z,5.30
2018-06-14T15:57:07.609Z,5.80
2018-06-14T15:59:35.626Z,5.10
2018-06-14T16:02:03.629Z,5.07
2018-06-14T16:04:31.672Z,5.20
2018-06-14T16:06:59.712Z,5.60
2018-06-14T16:09:27.857Z,4.90
2018-06-14T16:11:55.981Z,5.50
2018-06-14T16:14:24.012Z,5.50
2018-06-14T16:16:52.033Z,5.13
2018-06-14T16:19:20.076Z,4.57
2018-06-14T16:21:48.089Z,5.27
2018-06-14T16:24:16.226Z,5.40
2018-06-14T16:26:44.252Z,5.50
2018-06-14T16:29:12.359Z,6.20
2018-06-14T16:31:40.380Z,6.17
2018-06-14T16:34:08.480Z,6.57
2018-06-14T16:36:36.493Z,5.80
2018-06-14T16:39:07.410Z,6.23
2018-06-14T16:41:35.457Z,6.13
2018-06-14T16:44:03.501Z,6.23
2018-06-14T16:46:31.522Z,6.07
2018-06-14T16:48:59.540Z,7.00
2018-06-14T16:51:27.554Z,7.00
2018-06-14T16:53:55.780Z,7.53
2018-06-14T16:56:23.811Z,8.00
2018-06-14T16:58:51.887Z,9.13
2018-06-14T17:01:19.954Z,9.13
2018-06-14T17:03:47.956Z,9.57
2018-06-14T17:06:16.053Z,11.67
2018-06-14T17:08:44.049Z,11.50
2018-06-14T17:11:12.193Z,12.87
2018-06-14T17:13:40.248Z,13.67
2018-06-14T17:16:08.321Z,14.43
2018-06-14T17:18:36.327Z,15.57
2018-06-14T17:21:04.401Z,16.60
2018-06-14T17:23:33.218Z,17.50
2018-06-14T17:26:01.564Z,17.80
2018-06-14T17:28:29.726Z,18.30
2018-06-14T17:30:57.765Z,19.20
2018-06-14T17:33:25.859Z,19.07
2018-06-14T17:35:53.881Z,19.53
2018-06-14T17:38:21.895Z,20.47
2018-06-14T17:40:49.965Z,19.90
2018-06-14T17:43:18.016Z,21.40
2018-06-14T17:45:46.201Z,21.03
2018-06-14T17:48:14.260Z,20.47
2018-06-14T17:50:42.785Z,19.60
2018-06-14T17:53:10.916Z,21.87
2018-06-14T17:55:38.943Z,22.83
2018-06-14T17:58:07.030Z,22.97
2018-06-14T18:00:35.128Z,19.60
2018-06-14T18:03:03.510Z,21.57
2018-06-14T18:05:31.597Z,21.03
2018-06-14T18:07:59.633Z,20.17
2018-06-14T18:10:27.655Z,18.63
2018-06-14T18:12:55.681Z,20.47
2018-06-14T18:15:23.726Z,19.90
2018-06-14T18:17:51.778Z,20.00
2018-06-14T18:20:19.753Z,20.17
2018-06-14T18:22:47.793Z,19.93
2018-06-14T18:25:15.843Z,21.07
2018-06-14T18:27:43.812Z,20.50
2018-06-14T18:30:11.884Z,18.80
2018-06-14T18:32:39.941Z,18.53
2018-06-14T18:35:07.958Z,19.23
2018-06-14T18:37:35.996Z,19.80
2018-06-14T18:40:04.189Z,18.90
2018-06-14T18:42:32.211Z,19.10
2018-06-14T18:45:00.277Z,18.27
2018-06-14T18:47:28.293Z,19.33
2018-06-14T18:49:56.320Z,19.50
2018-06-14T18:52:24.348Z,20.70
2018-06-14T18:54:52.393Z,20.07
2018-06-14T18:57:20.471Z,19.90
2018-06-14T18:59:48.465Z,19.40
2018-06-14T19:02:16.625Z,21.00
2018-06-14T19:04:44.648Z,20.47
2018-06-14T19:07:12.660Z,20.33
2018-06-14T19:09:40.680Z,19.53
2018-06-14T19:12:08.737Z,19.17
2018-06-14T19:14:36.812Z,20.20
2018-06-14T19:17:04.886Z,19.23
2018-06-14T19:19:32.904Z,19.43
2018-06-14T19:22:01.009Z,20.00
2018-06-14T19:24:29.013Z,19.83
2018-06-14T19:26:57.048Z,20.13
2018-06-14T19:29:25.182Z,20.50
2018-06-14T19:31:53.212Z,22.23
2018-06-14T19:34:21.230Z,19.83
2018-06-14T19:36:49.230Z,20.00
2018-06-14T19:39:17.220Z,19.63
2018-06-14T19:41:45.206Z,19.83
2018-06-14T19:44:13.216Z,20.10
2018-06-14T19:46:41.238Z,19.57
2018-06-14T19:49:09.254Z,18.80
2018-06-14T19:51:37.321Z,20.43
2018-06-14T19:54:05.366Z,17.63
2018-06-14T19:56:33.469Z,18.67
2018-06-14T19:59:01.530Z,18.50
2018-06-14T20:01:29.565Z,19.13
2018-06-14T20:03:57.577Z,19.60
2018-06-14T20:06:25.584Z,19.00
2018-06-14T20:08:53.596Z,18.97
2018-06-14T20:11:21.608Z,19.67
2018-06-14T20:13:49.593Z,19.33
2018-06-14T20:16:17.616Z,20.27
2018-06-14T20:18:45.659Z,20.30
2018-06-14T20:21:13.696Z,20.17
2018-06-14T20:23:41.731Z,19.93
2018-06-14T20:26:10.035Z,20.57
2018-06-14T20:28:38.017Z,21.60
2018-06-14T20:31:06.136Z,20.17
2018-06-14T20:33:34.137Z,21.13
2018-06-14T20:36:02.165Z,19.13
2018-06-14T20:38:30.237Z,19.77
2018-06-14T20:40:58.577Z,20.30
2018-06-14T20:43:26.634Z,20.80
2018-06-14T20:45:54.631Z,20.03
2018-06-14T20:48:22.628Z,20.50
2018-06-14T20:50:50.612Z,21.50
2018-06-14T20:53:18.669Z,21.17
2018-06-14T20:55:46.699Z,21.97
2018-06-14T20:58:14.697Z,22.00
2018-06-14T21:00:42.676Z,22.33
2018-06-14T21:03:10.668Z,22.83
2018-06-14T21:05:38.885Z,22.80
2018-06-14T21:08:06.936Z,22.63
2018-06-14T21:10:34.915Z,22.37
2018-06-14T21:13:02.921Z,23.37
2018-06-14T21:15:31.013Z,22.27
2018-06-14T21:17:59.145Z,22.20
2018-06-14T21:20:27.140Z,24.10
2018-06-14T21:22:55.161Z,23.63
2018-06-14T21:25:23.929Z,23.60
2018-06-14T21:27:51.973Z,24.00
2018-06-14T21:30:20.021Z,21.87
2018-06-14T21:32:48.038Z,23.43
2018-06-14T21:35:16.743Z,24.57
2018-06-14T21:37:44.840Z,22.70
2018-06-14T21:40:12.836Z,23.27
2018-06-14T21:42:40.981Z,22.90
2018-06-14T21:45:09.069Z,22.27
2018-06-14T21:47:37.307Z,23.27
2018-06-14T21:50:05.320Z,22.10
2018-06-14T21:52:33.324Z,23.50
2018-06-14T21:55:01.446Z,23.60
2018-06-14T21:57:29.444Z,23.30
2018-06-14T21:59:57.494Z,24.27
2018-06-14T22:02:25.640Z,22.77
2018-06-14T22:04:53.676Z,23.30
2018-06-14T22:07:21.745Z,23.87
2018-06-14T22:09:49.794Z,22.80
2018-06-14T22:12:17.892Z,23.30
2018-06-14T22:14:45.885Z,22.77
2018-06-14T22:17:13.909Z,24.50
2018-06-14T22:19:41.945Z,22.87
2018-06-14T22:22:10.102Z,23.10
2018-06-14T22:24:38.132Z,26.10
2018-06-14T22:27:06.184Z,23.00
2018-06-14T22:29:34.206Z,23.37
2018-06-14T22:32:02.191Z,24.40
2018-06-14T22:34:41.630Z,23.83
2018-06-14T22:37:09.631Z,25.43
2018-06-14T22:39:37.629Z,24.87
2018-06-14T22:42:05.612Z,25.97
2018-06-14T22:44:33.633Z,25.57
2018-06-14T22:47:01.622Z,26.37
2018-06-14T22:49:29.712Z,28.13
2018-06-14T22:53:12.977Z,26.10
2018-06-14T22:55:40.972Z,27.63
2018-06-14T22:58:08.980Z,27.00
2018-06-14T23:01:46.480Z,27.17
2018-06-14T23:04:15.972Z,25.73
2018-06-14T23:06:43.973Z,25.80
2018-06-14T23:10:25.359Z,26.57
2018-06-14T23:12:53.369Z,27.20
2018-06-14T23:15:21.679Z,26.20
2018-06-14T23:17:50.381Z,25.17
2018-06-14T23:20:19.585Z,27.23
2018-06-14T23:22:48.782Z,25.87
2018-06-14T23:25:17.392Z,26.67
2018-06-14T23:27:45.408Z,27.10
2018-06-14T23:30:13.421Z,27.60
2018-06-14T23:32:41.442Z,27.70
2018-06-14T23:35:09.485Z,27.90
2018-06-14T23:37:37.509Z,27.37
2018-06-14T23:40:05.561Z,26.87
2018-06-14T23:42:33.583Z,28.83
2018-06-14T23:45:01.638Z,30.20
2018-06-14T23:47:29.664Z,29.70
2018-06-14T23:49:57.750Z,27.73
2018-06-14T23:52:25.957Z,29.63
2018-06-14T23:54:54.010Z,29.40
2018-06-14T23:57:22.064Z,28.63
2018-06-14T23:59:50.661Z,29.50
